sensor_id;sensor_type;location;lat;lon;timestamp;pressure;altitude;pressure_sealevel;temperature;humidity
24230;BME280;12362;50.004;8.006;2023-08-17T00:02:22;100722.25;;;19.13;100.00
24230;BME280;12362;50.004;8.006;2023-08-17T00:04:48;100723.06;;;19.13;100.00
24230;BME280;12362;50.004;8.006;2023-08-17T00:07:13;100736.13;;;19.15;100.00
24230;BME280;12362;50.004;8.006;2023-08-17T00:09:39;100732.41;;;19.17;100.00
24230;BME280;12362;50.004;8.006;2023-08-17T00:12:05;100736.38;;;19.22;100.00
24230;BME280;12362;50.004;8.006;2023-08-17T00:14:30;100738.41;;;19.30;100.00
24230;BME280;12362;50.004;8.006;2023-08-17T00:16:56;100736.47;;;19.32;100.00
24230;BME280;12362;50.004;8.006;2023-08-17T00:19:21;100733.84;;;19.32;100.00
24230;BME280;12362;50.004;8.006;2023-08-17T00:21:47;100728.34;;;19.35;100.00
24230;BME280;12362;50.004;8.006;2023-08-17T00:24:13;100736.47;;;19.43;100.00
24230;BME280;12362;50.004;8.006;2023-08-17T00:26:38;100734.78;;;19.42;100.00
24230;BME280;12362;50.004;8.006;2023-08-17T00:29:04;100733.69;;;19.44;100.00
24230;BME280;12362;50.004;8.006;2023-08-17T00:31:29;100732.66;;;19.47;100.00
24230;BME280;12362;50.004;8.006;2023-08-17T00:33:55;100739.47;;;19.49;100.00
24230;BME280;12362;50.004;8.006;2023-08-17T00:36:20;100739.81;;;19.56;100.00
24230;BME280;12362;50.004;8.006;2023-08-17T00:38:46;100736.22;;;19.57;100.00
24230;BME280;12362;50.004;8.006;2023-08-17T00:41:11;100734.41;;;19.57;100.00
24230;BME280;12362;50.004;8.006;2023-08-17T00:43:37;100725.53;;;19.58;100.00
24230;BME280;12362;50.004;8.006;2023-08-17T00:46:02;100733.19;;;19.61;100.00
24230;BME280;12362;50.004;8.006;2023-08-17T00:48:29;100724.22;;;19.64;100.00
24230;BME280;12362;50.004;8.006;2023-08-17T00:50:55;100728.53;;;19.65;100.00
24230;BME280;12362;50.004;8.006;2023-08-17T00:53:21;100727.41;;;19.67;100.00
24230;BME280;12362;50.004;8.006;2023-08-17T00:55:51;100711.38;;;19.70;100.00
24230;BME280;12362;50.004;8.006;2023-08-17T00:58:17;100713.63;;;19.75;100.00
24230;BME280;12362;50.004;8.006;2023-08-17T01:00:43;100710.19;;;19.74;100.00
24230;BME280;12362;50.004;8.006;2023-08-17T01:03:09;100711.34;;;19.81;100.00
24230;BME280;12362;50.004;8.006;2023-08-17T01:05:34;100711.66;;;19.88;100.00
24230;BME280;12362;50.004;8.006;2023-08-17T01:07:59;100699.06;;;19.91;100.00
24230;BME280;12362;50.004;8.006;2023-08-17T01:10:44;100701.38;;;19.85;100.00
24230;BME280;12362;50.004;8.006;2023-08-17T01:13:22;100695.41;;;19.83;100.00
24230;BME280;12362;50.004;8.006;2023-08-17T01:15:52;100695.41;;;19.83;100.00
24230;BME280;12362;50.004;8.006;2023-08-17T01:18:22;100703.91;;;19.86;100.00
24230;BME280;12362;50.004;8.006;2023-08-17T01:20:49;100703.91;;;19.86;100.00
24230;BME280;12362;50.004;8.006;2023-08-17T01:23:15;100702.72;;;19.79;100.00
24230;BME280;12362;50.004;8.006;2023-08-17T01:25:41;100700.22;;;19.78;100.00
24230;BME280;12362;50.004;8.006;2023-08-17T01:28:07;100695.91;;;19.77;100.00
24230;BME280;12362;50.004;8.006;2023-08-17T01:30:44;100696.84;;;19.76;100.00
24230;BME280;12362;50.004;8.006;2023-08-17T01:33:15;100690.63;;;19.77;100.00
24230;BME280;12362;50.004;8.006;2023-08-17T01:38:12;100682.00;;;19.75;100.00
24230;BME280;12362;50.004;8.006;2023-08-17T01:40:40;100686.22;;;19.77;100.00
24230;BME280;12362;50.004;8.006;2023-08-17T01:43:06;100684.88;;;19.83;100.00
24230;BME280;12362;50.004;8.006;2023-08-17T01:45:32;100681.25;;;19.84;100.00
24230;BME280;12362;50.004;8.006;2023-08-17T01:48:00;100693.13;;;19.89;100.00
24230;BME280;12362;50.004;8.006;2023-08-17T01:50:26;100687.63;;;19.81;100.00
24230;BME280;12362;50.004;8.006;2023-08-17T01:52:51;100688.72;;;19.79;100.00
24230;BME280;12362;50.004;8.006;2023-08-17T01:55:17;100686.22;;;19.77;100.00
24230;BME280;12362;50.004;8.006;2023-08-17T01:57:42;100683.31;;;19.80;100.00
24230;BME280;12362;50.004;8.006;2023-08-17T02:00:08;100687.63;;;19.81;100.00
24230;BME280;12362;50.004;8.006;2023-08-17T02:02:39;100681.63;;;19.79;100.00
24230;BME280;12362;50.004;8.006;2023-08-17T02:05:05;100678.03;;;19.80;100.00
24230;BME280;12362;50.004;8.006;2023-08-17T02:07:31;100690.59;;;19.88;100.00
24230;BME280;12362;50.004;8.006;2023-08-17T02:09:56;100686.03;;;19.90;100.00
24230;BME280;12362;50.004;8.006;2023-08-17T02:12:22;100686.41;;;19.85;100.00
24230;BME280;12362;50.004;8.006;2023-08-17T02:14:47;100681.00;;;19.87;100.00
24230;BME280;12362;50.004;8.006;2023-08-17T02:17:12;100681.28;;;19.73;100.00
24230;BME280;12362;50.004;8.006;2023-08-17T02:19:38;100677.16;;;19.59;100.00
24230;BME280;12362;50.004;8.006;2023-08-17T02:22:04;100677.06;;;19.50;100.00
24230;BME280;12362;50.004;8.006;2023-08-17T02:24:30;100676.25;;;19.38;100.00
24230;BME280;12362;50.004;8.006;2023-08-17T02:26:55;100677.09;;;19.39;100.00
24230;BME280;12362;50.004;8.006;2023-08-17T02:29:21;100673.25;;;19.43;100.00
24230;BME280;12362;50.004;8.006;2023-08-17T02:31:46;100677.00;;;19.29;100.00
24230;BME280;12362;50.004;8.006;2023-08-17T02:34:12;100674.81;;;19.34;100.00
24230;BME280;12362;50.004;8.006;2023-08-17T02:36:37;100672.69;;;19.28;100.00
24230;BME280;12362;50.004;8.006;2023-08-17T02:39:03;100670.88;;;19.29;100.00
24230;BME280;12362;50.004;8.006;2023-08-17T02:41:28;100672.78;;;19.27;100.00
24230;BME280;12362;50.004;8.006;2023-08-17T02:43:55;100673.88;;;19.24;100.00
24230;BME280;12362;50.004;8.006;2023-08-17T02:46:21;100673.53;;;19.18;100.00
24230;BME280;12362;50.004;8.006;2023-08-17T02:48:46;100672.00;;;19.16;100.00
24230;BME280;12362;50.004;8.006;2023-08-17T02:51:13;100665.78;;;19.17;100.00
24230;BME280;12362;50.004;8.006;2023-08-17T02:53:38;100656.91;;;19.18;100.00
24230;BME280;12362;50.004;8.006;2023-08-17T02:56:04;100657.00;;;19.16;100.00
24230;BME280;12362;50.004;8.006;2023-08-17T02:58:30;100655.25;;;19.17;100.00
24230;BME280;12362;50.004;8.006;2023-08-17T03:00:55;100659.19;;;19.11;100.00
24230;BME280;12362;50.004;8.006;2023-08-17T03:03:21;100658.09;;;19.14;100.00
24230;BME280;12362;50.004;8.006;2023-08-17T03:05:46;100658.94;;;19.14;100.00
24230;BME280;12362;50.004;8.006;2023-08-17T03:08:12;100653.78;;;19.02;100.00
24230;BME280;12362;50.004;8.006;2023-08-17T03:10:37;100649.97;;;18.95;100.00
24230;BME280;12362;50.004;8.006;2023-08-17T03:13:03;100649.25;;;18.93;100.00
24230;BME280;12362;50.004;8.006;2023-08-17T03:15:29;100651.16;;;18.80;100.00
24230;BME280;12362;50.004;8.006;2023-08-17T03:17:55;100644.09;;;18.80;100.00
24230;BME280;12362;50.004;8.006;2023-08-17T03:20:20;100649.25;;;18.82;100.00
24230;BME280;12362;50.004;8.006;2023-08-17T03:22:46;100649.00;;;18.74;100.00
24230;BME280;12362;50.004;8.006;2023-08-17T03:25:11;100655.56;;;18.68;100.00
24230;BME280;12362;50.004;8.006;2023-08-17T03:27:38;100647.31;;;18.62;100.00
24230;BME280;12362;50.004;8.006;2023-08-17T03:30:05;100648.19;;;18.62;100.00
24230;BME280;12362;50.004;8.006;2023-08-17T03:32:30;100649.13;;;18.61;100.00
24230;BME280;12362;50.004;8.006;2023-08-17T03:34:56;100651.16;;;18.58;100.00
24230;BME280;12362;50.004;8.006;2023-08-17T03:37:22;100649.94;;;18.51;100.00
24230;BME280;12362;50.004;8.006;2023-08-17T03:39:48;100659.16;;;18.45;100.00
24230;BME280;12362;50.004;8.006;2023-08-17T03:42:13;100660.09;;;18.44;100.00
24230;BME280;12362;50.004;8.006;2023-08-17T03:44:38;100648.63;;;18.34;100.00
24230;BME280;12362;50.004;8.006;2023-08-17T03:47:04;100649.56;;;18.33;100.00
24230;BME280;12362;50.004;8.006;2023-08-17T03:49:30;100661.38;;;18.28;100.00
24230;BME280;12362;50.004;8.006;2023-08-17T03:51:55;100642.72;;;18.20;100.00
24230;BME280;12362;50.004;8.006;2023-08-17T03:54:21;100648.91;;;18.19;100.00
24230;BME280;12362;50.004;8.006;2023-08-17T03:56:46;100648.41;;;18.14;100.00
24230;BME280;12362;50.004;8.006;2023-08-17T03:59:13;100642.50;;;18.23;100.00
24230;BME280;12362;50.004;8.006;2023-08-17T04:01:39;100645.16;;;18.23;100.00
24230;BME280;12362;50.004;8.006;2023-08-17T04:04:05;100643.47;;;18.22;100.00
24230;BME280;12362;50.004;8.006;2023-08-17T04:06:30;100649.38;;;18.13;100.00
24230;BME280;12362;50.004;8.006;2023-08-17T04:08:56;100651.53;;;18.08;100.00
24230;BME280;12362;50.004;8.006;2023-08-17T04:11:21;100653.00;;;17.89;100.00
24230;BME280;12362;50.004;8.006;2023-08-17T04:13:47;100651.31;;;17.88;100.00
24230;BME280;12362;50.004;8.006;2023-08-17T04:16:13;100649.69;;;17.98;100.00
24230;BME280;12362;50.004;8.006;2023-08-17T04:18:38;100659.59;;;17.94;100.00
24230;BME280;12362;50.004;8.006;2023-08-17T04:21:04;100655.03;;;17.85;100.00
24230;BME280;12362;50.004;8.006;2023-08-17T04:23:29;100659.59;;;17.71;100.00
24230;BME280;12362;50.004;8.006;2023-08-17T04:25:55;100669.25;;;17.59;100.00
24230;BME280;12362;50.004;8.006;2023-08-17T04:28:21;100674.72;;;17.56;100.00
24230;BME280;12362;50.004;8.006;2023-08-17T04:30:46;100666.09;;;17.54;100.00
24230;BME280;12362;50.004;8.006;2023-08-17T04:33:12;100671.59;;;17.51;100.00
24230;BME280;12362;50.004;8.006;2023-08-17T04:35:38;100678.19;;;17.57;100.00
24230;BME280;12362;50.004;8.006;2023-08-17T04:38:05;100682.81;;;17.53;100.00
24230;BME280;12362;50.004;8.006;2023-08-17T04:40:31;100682.59;;;17.56;100.00
24230;BME280;12362;50.004;8.006;2023-08-17T04:42:58;100689.66;;;17.56;100.00
24230;BME280;12362;50.004;8.006;2023-08-17T04:45:25;100692.88;;;17.59;100.00
24230;BME280;12362;50.004;8.006;2023-08-17T04:47:51;100703.16;;;17.62;100.00
24230;BME280;12362;50.004;8.006;2023-08-17T04:50:17;100699.69;;;17.62;100.00
24230;BME280;12362;50.004;8.006;2023-08-17T04:52:44;100694.72;;;17.70;100.00
24230;BME280;12362;50.004;8.006;2023-08-17T04:55:10;100696.38;;;17.71;100.00
24230;BME280;12362;50.004;8.006;2023-08-17T04:57:35;100699.53;;;17.76;100.00
24230;BME280;12362;50.004;8.006;2023-08-17T05:00:01;100693.25;;;17.89;100.00
24230;BME280;12362;50.004;8.006;2023-08-17T05:02:28;100699.00;;;17.94;100.00
24230;BME280;12362;50.004;8.006;2023-08-17T05:04:54;100703.53;;;17.92;100.00
24230;BME280;12362;50.004;8.006;2023-08-17T05:07:19;100704.66;;;18.01;100.00
24230;BME280;12362;50.004;8.006;2023-08-17T05:09:45;100707.88;;;18.04;100.00
24230;BME280;12362;50.004;8.006;2023-08-17T05:12:11;100710.09;;;18.21;100.00
24230;BME280;12362;50.004;8.006;2023-08-17T05:14:36;100711.41;;;18.16;100.00
24230;BME280;12362;50.004;8.006;2023-08-17T05:17:02;100708.31;;;18.22;100.00
24230;BME280;12362;50.004;8.006;2023-08-17T05:19:27;100689.13;;;18.32;100.00
24230;BME280;12362;50.004;8.006;2023-08-17T05:21:53;100699.31;;;18.47;100.00
24230;BME280;12362;50.004;8.006;2023-08-17T05:24:20;100694.78;;;18.49;100.00
24230;BME280;12362;50.004;8.006;2023-08-17T05:26:46;100694.44;;;18.54;100.00
24230;BME280;12362;50.004;8.006;2023-08-17T05:29:13;100691.69;;;18.55;100.00
24230;BME280;12362;50.004;8.006;2023-08-17T05:31:39;100699.13;;;18.61;100.00
24230;BME280;12362;50.004;8.006;2023-08-17T05:34:04;100707.38;;;18.68;100.00
24230;BME280;12362;50.004;8.006;2023-08-17T05:36:31;100698.16;;;18.73;100.00
24230;BME280;12362;50.004;8.006;2023-08-17T05:38:57;100699.72;;;18.76;100.00
24230;BME280;12362;50.004;8.006;2023-08-17T05:41:23;100696.63;;;18.82;100.00
24230;BME280;12362;50.004;8.006;2023-08-17T05:43:48;100696.50;;;18.83;100.00
24230;BME280;12362;50.004;8.006;2023-08-17T05:46:14;100696.38;;;18.96;100.00
24230;BME280;12362;50.004;8.006;2023-08-17T05:48:39;100694.94;;;19.03;100.00
24230;BME280;12362;50.004;8.006;2023-08-17T05:51:06;100694.56;;;19.07;100.00
24230;BME280;12362;50.004;8.006;2023-08-17T05:53:32;100697.34;;;19.06;100.00
24230;BME280;12362;50.004;8.006;2023-08-17T05:55:58;100710.03;;;19.12;100.00
24230;BME280;12362;50.004;8.006;2023-08-17T05:58:23;100711.22;;;19.18;100.00
24230;BME280;12362;50.004;8.006;2023-08-17T06:00:49;100710.63;;;19.15;100.00
24230;BME280;12362;50.004;8.006;2023-08-17T06:03:14;100716.50;;;19.29;100.00
24230;BME280;12362;50.004;8.006;2023-08-17T06:05:41;100714.72;;;19.19;100.00
24230;BME280;12362;50.004;8.006;2023-08-17T06:08:06;100721.75;;;19.40;100.00
24230;BME280;12362;50.004;8.006;2023-08-17T06:10:32;100718.59;;;19.57;100.00
24230;BME280;12362;50.004;8.006;2023-08-17T06:12:57;100719.47;;;19.89;100.00
24230;BME280;12362;50.004;8.006;2023-08-17T06:15:23;100724.09;;;20.28;100.00
24230;BME280;12362;50.004;8.006;2023-08-17T06:17:49;100720.84;;;20.56;100.00
24230;BME280;12362;50.004;8.006;2023-08-17T06:20:18;100725.84;;;20.79;100.00
24230;BME280;12362;50.004;8.006;2023-08-17T06:22:44;100716.84;;;21.11;100.00
24230;BME280;12362;50.004;8.006;2023-08-17T06:25:09;100720.03;;;21.06;100.00
24230;BME280;12362;50.004;8.006;2023-08-17T06:27:36;100712.19;;;22.01;100.00
24230;BME280;12362;50.004;8.006;2023-08-17T06:30:02;100706.75;;;22.96;100.00
24230;BME280;12362;50.004;8.006;2023-08-17T06:32:29;100703.53;;;23.38;100.00
24230;BME280;12362;50.004;8.006;2023-08-17T06:34:55;100701.72;;;23.12;100.00
24230;BME280;12362;50.004;8.006;2023-08-17T06:37:20;100708.16;;;22.45;100.00
24230;BME280;12362;50.004;8.006;2023-08-17T06:39:45;100718.88;;;22.24;100.00
24230;BME280;12362;50.004;8.006;2023-08-17T06:42:11;100714.97;;;22.47;100.00
24230;BME280;12362;50.004;8.006;2023-08-17T06:44:37;100709.91;;;22.73;100.00
24230;BME280;12362;50.004;8.006;2023-08-17T06:47:02;100701.28;;;23.16;100.00
24230;BME280;12362;50.004;8.006;2023-08-17T06:49:28;100695.56;;;23.38;100.00
24230;BME280;12362;50.004;8.006;2023-08-17T06:51:53;100693.78;;;22.93;100.00
24230;BME280;12362;50.004;8.006;2023-08-17T06:54:19;100706.03;;;23.13;100.00
24230;BME280;12362;50.004;8.006;2023-08-17T06:56:44;100698.44;;;22.91;100.00
24230;BME280;12362;50.004;8.006;2023-08-17T06:59:10;100702.81;;;23.36;100.00
24230;BME280;12362;50.004;8.006;2023-08-17T07:01:35;100696.25;;;23.40;100.00
24230;BME280;12362;50.004;8.006;2023-08-17T07:04:01;100696.56;;;23.82;100.00
24230;BME280;12362;50.004;8.006;2023-08-17T07:06:27;100690.63;;;24.05;100.00
24230;BME280;12362;50.004;8.006;2023-08-17T07:08:54;100704.00;;;23.95;100.00
24230;BME280;12362;50.004;8.006;2023-08-17T07:11:19;100699.69;;;23.94;100.00
24230;BME280;12362;50.004;8.006;2023-08-17T07:13:45;100705.47;;;24.50;100.00
24230;BME280;12362;50.004;8.006;2023-08-17T07:16:10;100697.84;;;24.12;100.00
24230;BME280;12362;50.004;8.006;2023-08-17T07:18:36;100695.59;;;24.60;100.00
24230;BME280;12362;50.004;8.006;2023-08-17T07:21:01;100690.34;;;25.35;100.00
24230;BME280;12362;50.004;8.006;2023-08-17T07:23:26;100694.13;;;25.74;100.00
24230;BME280;12362;50.004;8.006;2023-08-17T07:25:52;100678.53;;;25.94;100.00
24230;BME280;12362;50.004;8.006;2023-08-17T07:28:17;100682.03;;;25.95;100.00
24230;BME280;12362;50.004;8.006;2023-08-17T07:30:43;100661.56;;;26.11;100.00
24230;BME280;12362;50.004;8.006;2023-08-17T07:33:08;100683.50;;;25.81;100.00
24230;BME280;12362;50.004;8.006;2023-08-17T07:35:34;100678.56;;;25.37;100.00
24230;BME280;12362;50.004;8.006;2023-08-17T07:37:59;100676.84;;;25.77;100.00
24230;BME280;12362;50.004;8.006;2023-08-17T07:40:25;100674.97;;;25.70;100.00
24230;BME280;12362;50.004;8.006;2023-08-17T07:42:50;100675.03;;;25.86;100.00
24230;BME280;12362;50.004;8.006;2023-08-17T07:45:15;100666.38;;;26.40;100.00
24230;BME280;12362;50.004;8.006;2023-08-17T07:47:41;100672.16;;;25.72;100.00
24230;BME280;12362;50.004;8.006;2023-08-17T07:50:07;100672.16;;;25.64;100.00
24230;BME280;12362;50.004;8.006;2023-08-17T07:52:33;100672.06;;;25.89;100.00
24230;BME280;12362;50.004;8.006;2023-08-17T07:54:58;100669.31;;;25.65;100.00
24230;BME280;12362;50.004;8.006;2023-08-17T07:57:24;100660.41;;;26.22;100.00
24230;BME280;12362;50.004;8.006;2023-08-17T07:59:49;100654.50;;;26.82;100.00
24230;BME280;12362;50.004;8.006;2023-08-17T08:02:17;100654.00;;;27.55;100.00
24230;BME280;12362;50.004;8.006;2023-08-17T08:04:42;100659.63;;;26.91;100.00
24230;BME280;12362;50.004;8.006;2023-08-17T08:07:10;100658.03;;;26.59;100.00
24230;BME280;12362;50.004;8.006;2023-08-17T08:09:35;100657.66;;;26.77;100.00
24230;BME280;12362;50.004;8.006;2023-08-17T08:12:01;100657.06;;;27.14;100.00
24230;BME280;12362;50.004;8.006;2023-08-17T08:14:27;100654.09;;;27.39;100.00
24230;BME280;12362;50.004;8.006;2023-08-17T08:16:53;100650.19;;;27.80;100.00
24230;BME280;12362;50.004;8.006;2023-08-17T08:19:18;100651.59;;;27.90;100.00
24230;BME280;12362;50.004;8.006;2023-08-17T08:21:44;100655.88;;;27.77;100.00
24230;BME280;12362;50.004;8.006;2023-08-17T08:24:09;100660.41;;;27.46;100.00
24230;BME280;12362;50.004;8.006;2023-08-17T08:26:34;100655.47;;;27.35;100.00
24230;BME280;12362;50.004;8.006;2023-08-17T08:29:00;100643.84;;;28.40;100.00
24230;BME280;12362;50.004;8.006;2023-08-17T08:31:25;100644.41;;;28.50;100.00
24230;BME280;12362;50.004;8.006;2023-08-17T08:33:51;100649.16;;;29.06;100.00
24230;BME280;12362;50.004;8.006;2023-08-17T08:36:18;100642.13;;;28.62;100.00
24230;BME280;12362;50.004;8.006;2023-08-17T08:38:43;100646.28;;;28.64;100.00
24230;BME280;12362;50.004;8.006;2023-08-17T08:41:10;100640.09;;;29.21;100.00
24230;BME280;12362;50.004;8.006;2023-08-17T08:43:36;100638.53;;;29.12;100.00
24230;BME280;12362;50.004;8.006;2023-08-17T08:46:02;100640.09;;;29.57;100.00
24230;BME280;12362;50.004;8.006;2023-08-17T08:48:31;100642.97;;;29.55;100.00
24230;BME280;12362;50.004;8.006;2023-08-17T08:51:00;100645.66;;;29.76;100.00
24230;BME280;12362;50.004;8.006;2023-08-17T08:53:37;100644.78;;;30.11;100.00
24230;BME280;12362;50.004;8.006;2023-08-17T08:56:03;100644.19;;;30.36;100.00
24230;BME280;12362;50.004;8.006;2023-08-17T08:58:31;100643.31;;;29.66;100.00
24230;BME280;12362;50.004;8.006;2023-08-17T09:00:58;100643.75;;;29.70;100.00
24230;BME280;12362;50.004;8.006;2023-08-17T09:03:26;100640.06;;;29.71;100.00
24230;BME280;12362;50.004;8.006;2023-08-17T09:05:52;100641.97;;;29.56;100.00
24230;BME280;12362;50.004;8.006;2023-08-17T09:08:21;100637.97;;;30.08;100.00
24230;BME280;12362;50.004;8.006;2023-08-17T09:10:48;100633.94;;;30.19;100.00
24230;BME280;12362;50.004;8.006;2023-08-17T09:13:14;100639.94;;;29.79;100.00
24230;BME280;12362;50.004;8.006;2023-08-17T09:15:39;100646.31;;;29.78;100.00
24230;BME280;12362;50.004;8.006;2023-08-17T09:18:05;100635.00;;;29.82;100.00
24230;BME280;12362;50.004;8.006;2023-08-17T09:20:41;100640.66;;;28.73;100.00
24230;BME280;12362;50.004;8.006;2023-08-17T09:23:15;100634.41;;;28.81;100.00
24230;BME280;12362;50.004;8.006;2023-08-17T09:25:42;100635.66;;;29.14;100.00
24230;BME280;12362;50.004;8.006;2023-08-17T09:28:10;100639.47;;;29.05;100.00
24230;BME280;12362;50.004;8.006;2023-08-17T09:30:52;100627.94;;;29.75;100.00
24230;BME280;12362;50.004;8.006;2023-08-17T09:33:22;100627.69;;;29.70;100.00
24230;BME280;12362;50.004;8.006;2023-08-17T09:35:49;100635.31;;;29.73;100.00
24230;BME280;12362;50.004;8.006;2023-08-17T09:38:15;100637.56;;;29.20;100.00
24230;BME280;12362;50.004;8.006;2023-08-17T09:40:40;100633.34;;;29.60;100.00
24230;BME280;12362;50.004;8.006;2023-08-17T09:43:06;100627.56;;;30.20;100.00
24230;BME280;12362;50.004;8.006;2023-08-17T09:45:32;100626.59;;;30.88;100.00
24230;BME280;12362;50.004;8.006;2023-08-17T09:48:01;100622.19;;;31.15;100.00
24230;BME280;12362;50.004;8.006;2023-08-17T09:50:26;100609.25;;;30.91;100.00
24230;BME280;12362;50.004;8.006;2023-08-17T09:52:55;100604.25;;;31.22;97.56
24230;BME280;12362;50.004;8.006;2023-08-17T09:55:24;100601.00;;;30.52;100.00
24230;BME280;12362;50.004;8.006;2023-08-17T09:57:50;100603.38;;;30.68;100.00
24230;BME280;12362;50.004;8.006;2023-08-17T10:00:20;100610.63;;;30.47;100.00
24230;BME280;12362;50.004;8.006;2023-08-17T10:02:49;100606.41;;;30.04;100.00
24230;BME280;12362;50.004;8.006;2023-08-17T10:05:18;100596.69;;;30.57;100.00
24230;BME280;12362;50.004;8.006;2023-08-17T10:07:47;100600.34;;;30.77;100.00
24230;BME280;12362;50.004;8.006;2023-08-17T10:10:18;100607.03;;;30.33;100.00
24230;BME280;12362;50.004;8.006;2023-08-17T10:12:50;100612.31;;;31.28;100.00
24230;BME280;12362;50.004;8.006;2023-08-17T10:15:18;100615.19;;;31.20;100.00
24230;BME280;12362;50.004;8.006;2023-08-17T10:20:34;100626.59;;;30.88;100.00
24230;BME280;12362;50.004;8.006;2023-08-17T10:23:17;100612.19;;;31.43;100.00
24230;BME280;12362;50.004;8.006;2023-08-17T10:25:44;100613.09;;;31.82;94.64
24230;BME280;12362;50.004;8.006;2023-08-17T10:28:10;100623.06;;;30.88;100.00
24230;BME280;12362;50.004;8.006;2023-08-17T10:30:37;100618.66;;;30.47;100.00
24230;BME280;12362;50.004;8.006;2023-08-17T10:33:05;100621.69;;;30.58;100.00
24230;BME280;12362;50.004;8.006;2023-08-17T10:35:32;100627.41;;;30.28;100.00
24230;BME280;12362;50.004;8.006;2023-08-17T10:37:58;100622.28;;;30.54;100.00
24230;BME280;12362;50.004;8.006;2023-08-17T10:40:28;100619.38;;;31.42;100.00
24230;BME280;12362;50.004;8.006;2023-08-17T10:42:55;100614.50;;;31.58;98.43
24230;BME280;12362;50.004;8.006;2023-08-17T10:45:28;100618.03;;;31.59;99.06
24230;BME280;12362;50.004;8.006;2023-08-17T10:50:38;100621.13;;;31.56;100.00
24230;BME280;12362;50.004;8.006;2023-08-17T10:53:08;100613.38;;;31.40;100.00
24230;BME280;12362;50.004;8.006;2023-08-17T10:55:44;100609.63;;;32.14;88.01
24230;BME280;12362;50.004;8.006;2023-08-17T10:58:10;100610.84;;;32.05;87.79
24230;BME280;12362;50.004;8.006;2023-08-17T11:00:38;100617.72;;;31.35;89.98
24230;BME280;12362;50.004;8.006;2023-08-17T11:05:43;100614.16;;;31.21;100.00
24230;BME280;12362;50.004;8.006;2023-08-17T11:08:11;100608.91;;;31.00;94.97
24230;BME280;12362;50.004;8.006;2023-08-17T11:10:48;100588.72;;;32.16;84.48
24230;BME280;12362;50.004;8.006;2023-08-17T11:13:14;100588.47;;;32.04;80.00
24230;BME280;12362;50.004;8.006;2023-08-17T11:15:42;100593.81;;;31.52;100.00
24230;BME280;12362;50.004;8.006;2023-08-17T11:18:09;100586.00;;;32.35;85.17
24230;BME280;12362;50.004;8.006;2023-08-17T11:20:37;100583.69;;;32.64;93.44
24230;BME280;12362;50.004;8.006;2023-08-17T11:23:04;100588.88;;;32.59;90.64
24230;BME280;12362;50.004;8.006;2023-08-17T11:25:31;100593.81;;;32.75;98.68
24230;BME280;12362;50.004;8.006;2023-08-17T11:27:58;100595.75;;;32.36;85.63
24230;BME280;12362;50.004;8.006;2023-08-17T11:30:24;100600.47;;;31.89;83.56
24230;BME280;12362;50.004;8.006;2023-08-17T11:32:51;100600.78;;;31.28;91.82
24230;BME280;12362;50.004;8.006;2023-08-17T11:35:18;100599.13;;;31.33;89.01
24230;BME280;12362;50.004;8.006;2023-08-17T11:37:43;100590.56;;;32.22;80.64
24230;BME280;12362;50.004;8.006;2023-08-17T11:40:10;100593.94;;;32.93;77.23
24230;BME280;12362;50.004;8.006;2023-08-17T11:42:37;100599.84;;;32.45;76.62
24230;BME280;12362;50.004;8.006;2023-08-17T11:45:03;100601.19;;;32.93;77.67
24230;BME280;12362;50.004;8.006;2023-08-17T11:47:29;100600.69;;;31.81;78.15
24230;BME280;12362;50.004;8.006;2023-08-17T11:50:04;100603.16;;;31.89;84.04
24230;BME280;12362;50.004;8.006;2023-08-17T11:52:30;100604.22;;;32.20;83.51
24230;BME280;12362;50.004;8.006;2023-08-17T11:54:59;100607.31;;;31.78;80.01
24230;BME280;12362;50.004;8.006;2023-08-17T11:57:25;100623.13;;;31.54;81.57
24230;BME280;12362;50.004;8.006;2023-08-17T11:59:59;100615.63;;;31.30;100.00
24230;BME280;12362;50.004;8.006;2023-08-17T12:02:25;100628.25;;;29.86;97.37
24230;BME280;12362;50.004;8.006;2023-08-17T12:04:51;100625.38;;;28.82;97.79
24230;BME280;12362;50.004;8.006;2023-08-17T12:07:17;100627.75;;;28.91;100.00
24230;BME280;12362;50.004;8.006;2023-08-17T12:09:46;100626.19;;;28.97;100.00
24230;BME280;12362;50.004;8.006;2023-08-17T12:12:12;100626.19;;;28.82;100.00
24230;BME280;12362;50.004;8.006;2023-08-17T12:14:41;100623.22;;;28.63;100.00
24230;BME280;12362;50.004;8.006;2023-08-17T12:17:17;100625.81;;;29.00;100.00
24230;BME280;12362;50.004;8.006;2023-08-17T12:19:43;100625.84;;;29.70;100.00
24230;BME280;12362;50.004;8.006;2023-08-17T12:22:09;100605.81;;;30.08;95.93
24230;BME280;12362;50.004;8.006;2023-08-17T12:24:35;100601.84;;;30.53;100.00
24230;BME280;12362;50.004;8.006;2023-08-17T12:27:02;100617.28;;;29.60;100.00
24230;BME280;12362;50.004;8.006;2023-08-17T12:29:28;100608.50;;;30.08;100.00
24230;BME280;12362;50.004;8.006;2023-08-17T12:32:05;100615.03;;;29.85;100.00
24230;BME280;12362;50.004;8.006;2023-08-17T12:34:32;100599.38;;;29.82;100.00
24230;BME280;12362;50.004;8.006;2023-08-17T12:36:57;100598.75;;;30.28;95.30
24230;BME280;12362;50.004;8.006;2023-08-17T12:39:23;100595.66;;;30.58;94.02
24230;BME280;12362;50.004;8.006;2023-08-17T12:41:48;100595.47;;;31.00;87.83
24230;BME280;12362;50.004;8.006;2023-08-17T12:44:14;100594.06;;;31.04;85.21
24230;BME280;12362;50.004;8.006;2023-08-17T12:46:40;100582.72;;;32.14;84.14
24230;BME280;12362;50.004;8.006;2023-08-17T12:49:06;100573.59;;;31.69;86.69